createdAt,value
2023-02-22T00:01:19.261Z,9.00
2023-02-22T00:03:52.120Z,9.10
2023-02-22T00:06:25.249Z,9.10
2023-02-22T00:08:53.957Z,9.10
2023-02-22T00:11:22.440Z,9.10
2023-02-22T00:13:51.661Z,9.10
2023-02-22T00:16:24.018Z,9.10
2023-02-22T00:18:53.345Z,9.10
2023-02-22T00:21:22.907Z,9.20
2023-02-22T00:23:54.824Z,9.20
2023-02-22T00:26:24.063Z,9.20
2023-02-22T00:28:55.151Z,9.20
2023-02-22T00:31:25.121Z,9.20
2023-02-22T00:33:53.566Z,9.20
2023-02-22T00:36:22.113Z,9.20
2023-02-22T00:38:50.779Z,9.10
2023-02-22T00:41:19.500Z,9.10
2023-02-22T00:43:49.098Z,9.20
2023-02-22T00:46:17.647Z,9.20
2023-02-22T00:48:47.701Z,9.20
2023-02-22T00:51:16.483Z,9.20
2023-02-22T00:53:45.561Z,9.20
2023-02-22T00:56:14.183Z,9.20
2023-02-22T00:58:42.670Z,9.30
2023-02-22T01:01:18.480Z,9.30
2023-02-22T01:07:00.671Z,9.20
2023-02-22T01:09:29.240Z,9.20
2023-02-22T01:11:58.236Z,9.10
2023-02-22T01:14:28.851Z,9.20
2023-02-22T01:16:57.916Z,9.10
2023-02-22T01:19:26.349Z,9.20
2023-02-22T01:21:56.470Z,9.10
2023-02-22T01:24:26.663Z,9.10
2023-02-22T01:26:55.122Z,9.10
2023-02-22T01:29:23.600Z,9.10
2023-02-22T01:31:57.275Z,9.10
2023-02-22T01:34:26.464Z,9.10
2023-02-22T01:36:54.901Z,9.10
2023-02-22T01:39:23.366Z,9.10
2023-02-22T01:41:54.486Z,9.10
2023-02-22T01:44:29.190Z,9.10
2023-02-22T01:46:58.666Z,9.10
2023-02-22T01:49:35.307Z,9.10
2023-02-22T01:52:08.977Z,9.00
2023-02-22T01:54:41.075Z,9.00
2023-02-22T01:57:16.474Z,9.00
2023-02-22T01:59:47.624Z,9.00
2023-02-22T02:02:17.644Z,9.00
2023-02-22T02:04:47.055Z,9.00
2023-02-22T02:07:18.533Z,9.00
2023-02-22T02:09:55.682Z,9.00
2023-02-22T02:12:27.256Z,9.00
2023-02-22T02:15:15.754Z,8.90
2023-02-22T02:17:44.852Z,8.90
2023-02-22T02:20:19.355Z,9.00
2023-02-22T02:22:57.579Z,9.00
2023-02-22T02:26:00.776Z,8.90
2023-02-22T02:28:56.851Z,9.00
2023-02-22T02:32:06.945Z,9.00
2023-02-22T02:34:42.773Z,9.00
2023-02-22T02:37:16.807Z,9.00
2023-02-22T02:39:54.567Z,8.90
2023-02-22T02:42:27.826Z,9.00
2023-02-22T02:45:02.788Z,9.00
2023-02-22T02:47:36.040Z,9.00
2023-02-22T02:50:10.358Z,9.00
2023-02-22T02:52:40.871Z,9.00
2023-02-22T02:55:12.047Z,9.00
2023-02-22T02:57:40.544Z,9.00
2023-02-22T03:00:22.737Z,8.90
2023-02-22T03:03:08.738Z,8.90
2023-02-22T03:06:07.798Z,9.00
2023-02-22T03:08:43.132Z,9.00
2023-02-22T03:11:16.398Z,9.00
2023-02-22T03:13:53.168Z,9.00
2023-02-22T03:16:30.470Z,9.00
2023-02-22T03:19:07.870Z,9.00
2023-02-22T03:21:46.769Z,9.00
2023-02-22T03:24:21.046Z,9.00
2023-02-22T03:26:54.770Z,9.10
2023-02-22T03:29:27.558Z,9.10
2023-02-22T03:32:01.778Z,9.10
2023-02-22T03:34:35.698Z,9.10
2023-02-22T03:37:09.937Z,9.00
2023-02-22T03:39:39.791Z,9.00
2023-02-22T03:42:13.030Z,9.00
2023-02-22T03:44:44.807Z,9.00
2023-02-22T03:47:17.369Z,9.00
2023-02-22T03:49:52.642Z,9.00
2023-02-22T03:52:23.611Z,9.00
2023-02-22T03:54:53.771Z,9.00
2023-02-22T03:57:27.086Z,9.00
2023-02-22T03:59:55.741Z,9.00
2023-02-22T04:02:24.268Z,9.10
2023-02-22T04:04:52.910Z,9.10
2023-02-22T04:07:23.670Z,9.00
2023-02-22T04:09:52.202Z,9.00
2023-02-22T04:12:20.831Z,9.00
2023-02-22T04:14:49.291Z,9.00
2023-02-22T04:17:17.791Z,9.00
2023-02-22T04:19:46.388Z,9.00
2023-02-22T04:22:14.841Z,9.00
2023-02-22T04:24:45.464Z,9.00
2023-02-22T04:27:14.340Z,9.00
2023-02-22T04:29:43.261Z,9.10
2023-02-22T04:32:11.743Z,9.00
2023-02-22T04:34:40.268Z,9.00
2023-02-22T04:37:10.387Z,9.00
2023-02-22T04:39:39.124Z,9.00
2023-02-22T04:42:09.165Z,9.00
2023-02-22T04:44:37.607Z,9.00
2023-02-22T04:47:06.124Z,9.00
2023-02-22T04:49:34.626Z,9.00
2023-02-22T04:52:03.103Z,9.00
2023-02-22T04:54:31.538Z,9.00
2023-02-22T04:57:00.250Z,9.10
2023-02-22T04:59:30.151Z,9.00
2023-02-22T05:01:58.590Z,9.10
2023-02-22T05:04:27.023Z,9.10
2023-02-22T05:06:55.496Z,9.10
2023-02-22T05:09:23.991Z,9.10
2023-02-22T05:11:52.521Z,9.10
2023-02-22T05:14:21.022Z,9.10
2023-02-22T05:16:51.609Z,9.00
2023-02-22T05:19:20.098Z,9.10
2023-02-22T05:21:48.497Z,9.00
2023-02-22T05:24:17.173Z,9.10
2023-02-22T05:26:47.621Z,9.10
2023-02-22T05:29:16.123Z,9.10
2023-02-22T05:31:44.818Z,9.10
2023-02-22T05:34:15.081Z,9.10
2023-02-22T05:36:43.791Z,9.10
2023-02-22T05:39:12.538Z,9.10
2023-02-22T05:41:41.051Z,9.00
2023-02-22T05:44:09.496Z,9.00
2023-02-22T05:46:37.910Z,9.10
2023-02-22T05:49:06.534Z,9.00
2023-02-22T05:51:36.417Z,9.00
2023-02-22T05:54:04.973Z,9.00
2023-02-22T05:56:33.565Z,9.00
2023-02-22T05:59:02.030Z,9.10
2023-02-22T06:01:30.478Z,9.00
2023-02-22T06:03:59.419Z,9.10
2023-02-22T06:06:30.669Z,9.00
2023-02-22T06:09:00.589Z,9.00
2023-02-22T06:11:29.004Z,9.00
2023-02-22T06:13:57.459Z,9.00
2023-02-22T06:16:26.208Z,9.10
2023-02-22T06:18:54.647Z,9.10
2023-02-22T06:21:23.121Z,9.10
2023-02-22T06:23:51.624Z,9.10
2023-02-22T06:26:23.037Z,9.10
2023-02-22T06:28:51.649Z,9.10
2023-02-22T06:31:20.359Z,9.10
2023-02-22T06:33:49.018Z,9.10
2023-02-22T06:36:17.820Z,9.10
2023-02-22T06:38:46.380Z,9.10
2023-02-22T06:41:15.863Z,9.10
2023-02-22T06:43:48.397Z,9.10
2023-02-22T06:46:16.842Z,9.10
2023-02-22T06:48:45.397Z,9.10
2023-02-22T06:51:13.877Z,9.20
2023-02-22T06:53:42.324Z,9.20
2023-02-22T06:56:10.865Z,9.20
2023-02-22T06:58:39.364Z,9.20
2023-02-22T07:01:09.254Z,9.10
2023-02-22T07:03:37.987Z,9.10
2023-02-22T07:06:08.142Z,9.20
2023-02-22T07:08:36.557Z,9.10
2023-02-22T07:11:05.553Z,9.10
2023-02-22T07:13:34.139Z,9.10
2023-02-22T07:16:02.835Z,9.10
2023-02-22T07:18:32.721Z,9.10
2023-02-22T07:21:01.377Z,9.10
2023-02-22T07:23:29.882Z,9.10
2023-02-22T07:26:01.233Z,9.10
2023-02-22T07:28:29.795Z,9.20
2023-02-22T07:30:58.883Z,9.20
2023-02-22T07:33:27.393Z,9.20
2023-02-22T07:35:57.302Z,9.20
2023-02-22T07:38:25.734Z,9.20
2023-02-22T07:40:54.275Z,9.30
2023-02-22T07:43:25.893Z,9.30
2023-02-22T07:45:56.262Z,9.30
2023-02-22T07:48:27.260Z,9.30
2023-02-22T07:50:57.208Z,9.30
2023-02-22T07:53:30.401Z,9.30
2023-02-22T07:55:59.736Z,9.30
2023-02-22T07:58:30.473Z,9.30
2023-02-22T08:00:59.333Z,9.40
2023-02-22T08:03:28.695Z,9.40
2023-02-22T08:06:00.706Z,9.50
2023-02-22T08:08:29.376Z,9.50
2023-02-22T08:10:58.172Z,9.60
2023-02-22T08:13:26.901Z,9.60
2023-02-22T08:15:58.413Z,9.70
2023-02-22T08:18:27.395Z,9.70
2023-02-22T08:20:57.608Z,9.70
2023-02-22T08:23:27.223Z,9.70
2023-02-22T08:25:56.701Z,9.70
2023-02-22T08:28:26.052Z,9.70
2023-02-22T08:30:54.623Z,9.70
2023-02-22T08:33:23.315Z,9.70
2023-02-22T08:35:52.305Z,9.80
2023-02-22T08:38:24.747Z,9.80
2023-02-22T08:40:53.488Z,9.80
2023-02-22T08:43:22.916Z,9.80
2023-02-22T08:45:54.044Z,9.90
2023-02-22T08:48:23.559Z,9.90
2023-02-22T08:50:52.284Z,9.90
2023-02-22T08:53:22.257Z,10.00
2023-02-22T08:55:51.078Z,10.00
2023-02-22T08:58:19.654Z,10.00
2023-02-22T09:00:49.912Z,10.10
2023-02-22T09:03:18.482Z,10.10
2023-02-22T09:05:47.026Z,10.10
2023-02-22T09:08:40.867Z,10.20
2023-02-22T09:11:10.796Z,10.20
2023-02-22T09:13:39.315Z,10.30
2023-02-22T09:16:08.597Z,10.30
2023-02-22T09:18:44.107Z,10.40
2023-02-22T09:21:14.317Z,10.40
2023-02-22T09:23:43.263Z,10.40
2023-02-22T09:26:16.191Z,10.50
2023-02-22T09:28:44.665Z,10.50
2023-02-22T09:31:13.354Z,10.60
2023-02-22T09:33:42.738Z,10.70
2023-02-22T09:36:11.412Z,10.70
2023-02-22T09:38:39.860Z,10.70
2023-02-22T09:41:15.914Z,10.80
2023-02-22T09:43:50.668Z,10.90
2023-02-22T09:46:28.008Z,10.90
2023-02-22T09:49:03.247Z,11.00
2023-02-22T09:51:38.744Z,11.00
2023-02-22T09:54:17.690Z,11.10
2023-02-22T09:56:49.955Z,11.20
2023-02-22T09:59:24.473Z,11.40
2023-02-22T10:02:00.782Z,11.50
2023-02-22T10:04:41.915Z,11.50
2023-02-22T10:07:19.606Z,11.60
2023-02-22T10:09:49.879Z,11.50
2023-02-22T10:12:30.189Z,11.60
2023-02-22T10:15:32.067Z,11.70
2023-02-22T10:18:14.667Z,11.80
2023-02-22T10:20:54.841Z,11.90
2023-02-22T10:23:34.504Z,11.90
2023-02-22T10:26:16.210Z,12.00
2023-02-22T10:28:54.119Z,12.00
2023-02-22T10:31:28.320Z,12.10
2023-02-22T10:34:01.349Z,12.20
2023-02-22T10:36:29.580Z,12.30
2023-02-22T10:39:01.184Z,12.30
2023-02-22T10:41:32.696Z,12.40
2023-02-22T10:44:03.581Z,12.40
2023-02-22T10:46:35.024Z,12.40
2023-02-22T10:49:07.524Z,12.30
2023-02-22T10:51:36.455Z,12.30
2023-02-22T10:54:26.828Z,12.30
2023-02-22T10:56:57.188Z,12.30
2023-02-22T10:59:34.202Z,12.20
2023-02-22T11:02:09.365Z,12.30
2023-02-22T11:04:49.770Z,12.30
2023-02-22T11:07:27.364Z,12.30
2023-02-22T11:09:57.641Z,12.40
2023-02-22T11:12:32.198Z,12.40
2023-02-22T11:15:27.852Z,12.50
2023-02-22T11:18:01.496Z,12.50
2023-02-22T11:20:34.920Z,12.40
2023-02-22T11:23:05.953Z,12.50
2023-02-22T11:25:36.611Z,12.60
2023-02-22T11:28:11.022Z,12.60
2023-02-22T11:30:44.067Z,12.50
2023-02-22T11:33:23.834Z,12.50
2023-02-22T11:35:54.367Z,12.50
2023-02-22T11:38:27.610Z,12.50
2023-02-22T11:41:09.297Z,12.50
2023-02-22T11:43:37.858Z,12.60
2023-02-22T11:46:12.054Z,12.70
2023-02-22T11:49:09.175Z,12.70
2023-02-22T11:51:49.731Z,12.70
2023-02-22T11:55:05.505Z,12.70
2023-02-22T11:58:05.935Z,12.70
2023-02-22T12:00:58.806Z,12.70
2023-02-22T12:04:22.672Z,12.70
2023-02-22T12:07:22.301Z,12.70
2023-02-22T12:10:21.337Z,12.90
2023-02-22T12:13:27.328Z,12.90
2023-02-22T12:16:25.122Z,12.90
2023-02-22T12:19:23.298Z,12.80
2023-02-22T12:22:15.946Z,12.70
2023-02-22T12:25:09.840Z,12.70
2023-02-22T12:28:00.279Z,12.80
2023-02-22T12:30:56.451Z,12.70
2023-02-22T12:33:51.090Z,12.70
2023-02-22T12:36:46.825Z,12.70
2023-02-22T12:39:53.580Z,12.70
2023-02-22T12:42:49.847Z,12.70
2023-02-22T12:45:43.650Z,12.80
2023-02-22T12:48:43.815Z,12.90
2023-02-22T12:51:41.312Z,12.90
2023-02-22T12:54:42.274Z,13.00
2023-02-22T12:57:44.543Z,13.00
2023-02-22T13:00:39.834Z,13.20
2023-02-22T13:03:34.062Z,13.10
2023-02-22T13:06:34.613Z,13.20
2023-02-22T13:09:44.803Z,13.30
2023-02-22T13:12:42.470Z,13.30
2023-02-22T13:15:34.915Z,13.30
2023-02-22T13:18:30.549Z,13.30
2023-02-22T13:21:24.606Z,13.30
2023-02-22T13:24:25.247Z,13.20
2023-02-22T13:27:17.777Z,13.20
2023-02-22T13:30:07.268Z,13.10
2023-02-22T13:33:17.526Z,13.00
2023-02-22T13:36:20.142Z,13.10
2023-02-22T13:39:45.950Z,13.10
2023-02-22T13:42:50.679Z,13.00
2023-02-22T13:46:00.437Z,13.00
2023-02-22T13:49:17.374Z,13.10
2023-02-22T13:52:08.490Z,13.10
2023-02-22T13:55:01.328Z,13.20
2023-02-22T13:57:51.908Z,13.20
2023-02-22T14:00:47.915Z,13.30
2023-02-22T14:03:41.145Z,13.40
2023-02-22T14:06:41.812Z,13.50
2023-02-22T14:09:48.397Z,13.50
2023-02-22T14:12:52.631Z,13.50
2023-02-22T14:16:22.415Z,13.50
2023-02-22T14:19:17.660Z,13.60
2023-02-22T14:22:07.585Z,13.70
2023-02-22T14:24:55.054Z,13.60
2023-02-22T14:27:43.764Z,13.60
2023-02-22T14:30:35.320Z,13.60
2023-02-22T14:33:54.985Z,13.60
2023-02-22T14:36:52.921Z,13.50
2023-02-22T14:39:45.152Z,13.40
2023-02-22T14:42:37.417Z,13.40
2023-02-22T14:45:29.219Z,13.30
2023-02-22T14:48:26.153Z,13.20
2023-02-22T14:51:22.758Z,13.00
2023-02-22T14:54:16.926Z,13.00
2023-02-22T14:57:14.928Z,12.90
2023-02-22T15:00:20.229Z,12.90
2023-02-22T15:03:12.772Z,12.80
2023-02-22T15:06:07.722Z,12.80
2023-02-22T15:09:08.164Z,12.80
2023-02-22T15:12:12.991Z,12.80
2023-02-22T15:15:22.051Z,12.80
2023-02-22T15:18:19.389Z,12.80
2023-02-22T15:21:13.177Z,12.70
2023-02-22T15:24:02.453Z,12.60
2023-02-22T15:27:01.053Z,12.60
2023-02-22T15:29:49.035Z,12.70
2023-02-22T15:32:38.045Z,12.60
2023-02-22T15:35:30.370Z,12.60
2023-02-22T15:38:22.887Z,12.60
2023-02-22T15:41:21.865Z,12.50
2023-02-22T15:44:23.242Z,12.50
2023-02-22T15:47:14.386Z,12.40
2023-02-22T15:50:21.301Z,12.30
2023-02-22T15:53:10.477Z,12.20
2023-02-22T15:56:02.661Z,12.10
2023-02-22T15:58:50.241Z,12.00
2023-02-22T16:01:42.373Z,12.00
2023-02-22T16:04:32.370Z,11.90
2023-02-22T16:07:21.365Z,11.80
2023-02-22T16:10:09.478Z,11.70
2023-02-22T16:13:31.151Z,11.60
2023-02-22T16:16:30.385Z,11.50
2023-02-22T16:19:33.342Z,11.40
2023-02-22T16:22:33.919Z,11.30
2023-02-22T16:25:32.971Z,11.30
2023-02-22T16:28:34.349Z,11.30
2023-02-22T16:31:27.567Z,11.20
2023-02-22T16:34:16.555Z,11.10
2023-02-22T16:37:03.769Z,11.00
2023-02-22T16:39:52.800Z,11.00
2023-02-22T16:42:40.730Z,10.90
2023-02-22T16:45:29.955Z,10.80
2023-02-22T16:48:20.364Z,10.80
2023-02-22T16:51:19.385Z,10.80
2023-02-22T16:54:11.358Z,10.70
2023-02-22T16:57:00.452Z,10.60
2023-02-22T16:59:52.435Z,10.60
2023-02-22T17:02:41.820Z,10.60
2023-02-22T17:05:29.301Z,10.50
2023-02-22T17:08:16.866Z,10.40
2023-02-22T17:11:04.656Z,10.30
2023-02-22T17:13:52.243Z,10.30
2023-02-22T17:16:39.897Z,10.20
2023-02-22T17:19:29.308Z,10.10
2023-02-22T17:22:21.285Z,10.10
2023-02-22T17:25:26.150Z,10.00
2023-02-22T17:28:14.029Z,10.00
2023-02-22T17:31:02.768Z,9.90
2023-02-22T17:33:51.566Z,9.90
2023-02-22T17:36:40.543Z,9.90
2023-02-22T17:39:28.621Z,9.90
2023-02-22T17:42:15.875Z,9.90
2023-02-22T17:45:03.594Z,9.90
2023-02-22T17:47:52.153Z,9.90
2023-02-22T17:50:41.275Z,9.90
2023-02-22T17:53:30.620Z,9.90
2023-02-22T17:56:20.570Z,10.00
2023-02-22T17:59:09.291Z,10.00
2023-02-22T18:01:56.507Z,10.00
2023-02-22T18:04:44.268Z,10.00
2023-02-22T18:07:32.369Z,10.00
2023-02-22T18:10:21.792Z,10.00
2023-02-22T18:13:09.144Z,10.00
2023-02-22T18:16:00.501Z,9.90
2023-02-22T18:18:49.462Z,9.80
2023-02-22T18:21:38.725Z,9.80
2023-02-22T18:24:26.289Z,9.80
2023-02-22T18:27:18.315Z,9.80
2023-02-22T18:30:06.480Z,9.80
2023-02-22T18:32:54.036Z,9.80
2023-02-22T18:35:44.672Z,9.80
2023-02-22T18:38:32.552Z,9.80
2023-02-22T18:41:25.610Z,9.80
2023-02-22T18:44:16.624Z,9.70
2023-02-22T18:47:03.665Z,9.70
2023-02-22T18:49:51.134Z,9.70
2023-02-22T18:52:46.026Z,9.70
2023-02-22T18:55:33.358Z,9.60
2023-02-22T18:58:20.674Z,9.60
2023-02-22T19:01:09.353Z,9.60
2023-02-22T19:03:56.886Z,9.60
2023-02-22T19:06:45.603Z,9.50
2023-02-22T19:09:33.254Z,9.50
2023-02-22T19:12:21.344Z,9.50
2023-02-22T19:15:12.112Z,9.50
2023-02-22T19:18:01.126Z,9.50
2023-02-22T19:20:57.176Z,9.50
2023-02-22T19:23:47.784Z,9.40
2023-02-22T19:26:35.394Z,9.50
2023-02-22T19:29:23.942Z,9.40
2023-02-22T19:32:12.772Z,9.40
2023-02-22T19:35:07.092Z,9.30
2023-02-22T19:37:56.631Z,9.30
2023-02-22T19:40:44.932Z,9.30
2023-02-22T19:43:33.683Z,9.20
2023-02-22T19:46:22.221Z,9.20
2023-02-22T19:49:09.644Z,9.20
2023-02-22T19:51:59.771Z,9.20
2023-02-22T19:54:47.381Z,9.10
2023-02-22T19:57:34.953Z,9.20
2023-02-22T20:00:25.410Z,9.30
2023-02-22T20:03:15.519Z,9.20
2023-02-22T20:06:03.264Z,9.30
2023-02-22T20:08:51.975Z,9.40
2023-02-22T20:11:39.944Z,9.40
2023-02-22T20:14:28.857Z,9.40
2023-02-22T20:17:16.475Z,9.40
2023-02-22T20:20:06.886Z,9.40
2023-02-22T20:22:54.271Z,9.40
2023-02-22T20:25:42.984Z,9.40
2023-02-22T20:28:30.636Z,9.40
2023-02-22T20:31:18.886Z,9.40
2023-02-22T20:34:07.380Z,9.40
2023-02-22T20:36:54.918Z,9.40
2023-02-22T20:39:44.375Z,9.40
2023-02-22T20:42:33.266Z,9.40
2023-02-22T20:45:20.640Z,9.40
2023-02-22T20:48:08.021Z,9.30
2023-02-22T20:50:55.154Z,9.30
2023-02-22T20:53:47.957Z,9.30
2023-02-22T20:56:34.880Z,9.30
2023-02-22T20:59:23.260Z,9.40
2023-02-22T21:02:12.025Z,9.40
2023-02-22T21:04:59.596Z,9.40
2023-02-22T21:07:46.595Z,9.40
2023-02-22T21:10:41.484Z,9.40
2023-02-22T21:13:29.000Z,9.40
2023-02-22T21:16:21.102Z,9.40
2023-02-22T21:19:09.106Z,9.50
2023-02-22T21:21:58.050Z,9.40
2023-02-22T21:24:45.510Z,9.40
2023-02-22T21:27:32.677Z,9.40
2023-02-22T21:30:20.203Z,9.40
2023-02-22T21:33:09.247Z,9.40
2023-02-22T21:35:56.385Z,9.40
2023-02-22T21:38:45.627Z,9.40
2023-02-22T21:41:34.084Z,9.30
2023-02-22T21:44:21.728Z,9.30
2023-02-22T21:47:08.630Z,9.30
2023-02-22T21:49:57.021Z,9.30
2023-02-22T21:52:44.905Z,9.30
2023-02-22T21:55:32.468Z,9.30
2023-02-22T21:58:20.190Z,9.30
2023-02-22T22:01:07.747Z,9.30
2023-02-22T22:03:54.881Z,9.30
2023-02-22T22:06:43.802Z,9.20
2023-02-22T22:09:33.249Z,9.20
2023-02-22T22:12:26.019Z,9.20
2023-02-22T22:15:16.530Z,9.20
2023-02-22T22:18:06.801Z,9.20
2023-02-22T22:20:54.164Z,9.20
2023-02-22T22:23:45.703Z,9.20
2023-02-22T22:26:34.000Z,9.10
2023-02-22T22:29:21.643Z,9.10
2023-02-22T22:32:09.113Z,9.10
2023-02-22T22:34:59.271Z,9.10
2023-02-22T22:37:53.744Z,9.10
2023-02-22T22:40:42.560Z,9.10
2023-02-22T22:43:30.388Z,9.10
2023-02-22T22:46:19.210Z,9.10
2023-02-22T22:49:07.869Z,9.00
2023-02-22T22:51:55.404Z,9.00
2023-02-22T22:54:43.540Z,8.90
2023-02-22T22:57:32.120Z,8.90
2023-02-22T23:00:36.101Z,8.90
2023-02-22T23:03:23.358Z,8.90
2023-02-22T23:06:13.439Z,8.90
2023-02-22T23:09:10.455Z,8.90
2023-02-22T23:12:08.856Z,8.80
2023-02-22T23:14:58.567Z,8.90
2023-02-22T23:17:45.910Z,8.80
2023-02-22T23:20:38.745Z,8.80
2023-02-22T23:23:27.807Z,8.80
2023-02-22T23:26:18.682Z,8.80
2023-02-22T23:29:08.852Z,8.70
2023-02-22T23:31:58.905Z,8.70
2023-02-22T23:34:49.748Z,8.70
2023-02-22T23:37:37.279Z,8.70
2023-02-22T23:40:26.037Z,8.70
2023-02-22T23:43:13.294Z,8.70
2023-02-22T23:46:10.764Z,8.70
2023-02-22T23:49:02.009Z,8.70
2023-02-22T23:51:50.341Z,8.70
2023-02-22T23:54:44.152Z,8.70
2023-02-22T23:57:32.905Z,8.70
